Salem, OR

3:35 AM PDT on May 22, 2015 (GMT -0700)
Center & Cordon NE | | Change Station
CLOSE
Current Station
Personal Weather Station
Location: Salem, OR
Elevation: 210 ft
Nearby Weather Stations

Elev 210 ft 44.94 °N, 122.96 °W | Updated 3 seconds ago

Overcast
Overcast
54.2 °F
Feels Like 54.2 °F
N
3.1
Wind Variable Wind from West
Gusts 3.5 mph

Today
High -- | Low -- °F
--% Chance of Precip.
Yesterday
High -- | Low -- °F
Precip. -- in
5:36 AM 8:41 PM
Waxing Crescent, 20% visible
Pressure 29.95 in
Visibility 10.0 miles
Clouds Overcast 1600 ft
Dew Point 51 °F
Humidity 90%
Rainfall 0.02 in
Snow Depth Not available.
UV 0 out of 12
Pollen 6.10 out of 12
Air Quality Not available.
Flu Activity Local Activity
METAR KSLE 220956Z AUTO 26004KT 10SM OVC016 13/10 A2995 RMK AO2 SLP141 T01280100

More Conditions Fewer Conditions

Pressure 29.95 in
Visibility 10.0 miles
Clouds Overcast 1600 ft
Dew Point 51 °F
Humidity 90%
Rainfall 0.02 in
Snow Depth Not available.
UV 0 out of 12
Pollen 6.10 out of 12
Air Quality Not available.
Flu Activity Local Activity
METAR KSLE 220956Z AUTO 26004KT 10SM OVC016 13/10 A2995 RMK AO2 SLP141 T01280100

More Conditions Fewer Conditions

10-Day Weather Forecast

Almanac

Astronomy

May. 22, 2015 Rise Set
Actual Time
Civil Twilight
Nautical Twilight
Astronomical Twilight
Moon
Length of Visible Light
Length of Day
Tomorrow will be .
, % of the Moon is Illuminated

Today's Extremes

State Highs State Lows

Community

WunderPhotos

Upload Photos

1,823,200 photos uploaded!

WunderBlogs® & News

Nearby

Air Quality

  Air Quality AQ Index Pollutant
Not available.

Snow Depth

Station Depth Elevation

Earthquake Activity

City Distance Mag. Time & Date
Minimum magnitude displayed is 2.5.

Coastal Water Temperatures

Place Temperature

Stations

Nearby Weather Stations

Station Location Temp. Windchill Dew Point Humidity Wind Precip. Elev Updated Type